Lisbon, Portugal
Current Conditions -  °F | °C
As of 12:00 AM on Monday 26 Jan 2015 (Local Time) from LPPT Reporting Station
Clear Clear  
Wind Chill: 50°   Ceiling: Unl
Heat Index: 50°   Visibility: 6mi
Dew Point: 45°   Wind: 9mph
Humidity: 82%   Direction: 330°NNW
Pressure: 30.39"   Gusts: NA
Location:  38.72°N, 9.14°W
Report Text: LPPT 260000Z 33008KT CAVOK 10/07 Q1029
Loading
Personal Weather Stations






























Interactive Weather Map New forecast layout! Learn more

10-Day Weather Forecast

Advertisements
Track Severe Weather on mobile